Cope, Colorado
Current Conditions -  °F | °C
As of 2:53 PM on Thursday 23 Oct 2014 (Local Time) from KAKO Reporting Station
Clear Clear  
Wind Chill: 73°   Ceiling: Unl
Heat Index: 73°   Visibility: 10mi
Dew Point: 31°   Wind: 9mph
Humidity: 21%   Direction: 220°SW
Pressure: 30.08"   Gusts: NA
Location:  39.66°N, 102.85°W
Report Text: KAKO 232053Z AUTO 22008KT 10SM CLR 23/M01 A3008 RMK AO2 SLP148 T02281006 56018
Loading
Personal Weather Stations






























Interactive Weather Map
Tropical Storm Tracking
New forecast layout! Learn more

10-Day Weather Forecast

Advertisements
Track Severe Weather on mobile